createdAt,value
2019-05-09T00:00:10.591Z,12.46
2019-05-09T00:01:10.557Z,12.39
2019-05-09T00:02:10.553Z,12.46
2019-05-09T00:03:10.508Z,12.43
2019-05-09T00:04:10.518Z,12.36
2019-05-09T00:05:10.445Z,12.43
2019-05-09T00:06:10.420Z,12.42
2019-05-09T00:07:10.387Z,12.42
2019-05-09T00:08:10.404Z,12.39
2019-05-09T00:09:10.330Z,12.42
2019-05-09T00:10:10.364Z,12.42
2019-05-09T00:11:10.270Z,12.37
2019-05-09T00:12:10.246Z,12.39
2019-05-09T00:13:10.222Z,12.39
2019-05-09T00:14:10.186Z,12.42
2019-05-09T00:15:10.203Z,12.43
2019-05-09T00:16:10.133Z,12.46
2019-05-09T00:17:10.102Z,12.42
2019-05-09T00:18:10.069Z,12.43
2019-05-09T00:19:10.099Z,12.40
2019-05-09T00:20:10.018Z,12.40
2019-05-09T00:21:10.031Z,12.43
2019-05-09T00:22:09.965Z,12.39
2019-05-09T00:23:09.966Z,12.36
2019-05-09T00:24:09.898Z,12.31
2019-05-09T00:25:09.873Z,12.32
2019-05-09T00:26:09.890Z,12.35
2019-05-09T00:27:09.819Z,12.29
2019-05-09T00:28:09.785Z,12.28
2019-05-09T00:29:09.766Z,12.37
2019-05-09T00:30:09.741Z,12.27
2019-05-09T00:31:09.747Z,12.25
2019-05-09T00:32:09.670Z,12.28
2019-05-09T00:33:09.642Z,12.32
2019-05-09T00:34:09.614Z,12.31
2019-05-09T00:35:09.595Z,12.31
2019-05-09T00:36:09.605Z,12.28
2019-05-09T00:37:09.528Z,12.24
2019-05-09T00:38:09.495Z,12.22
2019-05-09T00:39:09.513Z,12.15
2019-05-09T00:40:09.442Z,12.20
2019-05-09T00:41:09.407Z,12.13
2019-05-09T00:42:09.379Z,12.15
2019-05-09T00:43:09.403Z,12.17
2019-05-09T00:44:09.390Z,12.22
2019-05-09T00:45:09.312Z,12.07
2019-05-09T00:46:09.268Z,12.12
2019-05-09T00:47:09.289Z,12.22
2019-05-09T00:48:09.212Z,12.13
2019-05-09T00:49:09.184Z,12.07
2019-05-09T00:50:09.153Z,12.15
2019-05-09T00:51:09.177Z,12.15
2019-05-09T00:52:09.099Z,12.13
2019-05-09T00:53:09.066Z,12.04
2019-05-09T00:54:09.081Z,12.04
2019-05-09T00:55:09.023Z,12.24
2019-05-09T00:56:08.985Z,12.09
2019-05-09T00:57:08.951Z,12.10
2019-05-09T00:58:08.920Z,12.09
2019-05-09T00:59:08.934Z,12.17
2019-05-09T01:00:08.867Z,12.12
2019-05-09T01:01:08.842Z,12.09
2019-05-09T01:02:08.805Z,12.22
2019-05-09T01:03:08.778Z,12.13
2019-05-09T01:04:08.802Z,12.12
2019-05-09T01:05:08.798Z,12.13
2019-05-09T01:06:08.705Z,12.13
2019-05-09T01:07:08.722Z,12.12
2019-05-09T01:08:08.659Z,12.15
2019-05-09T01:09:08.610Z,12.12
2019-05-09T01:10:08.590Z,12.21
2019-05-09T01:11:12.421Z,12.12
2019-05-09T01:12:08.550Z,12.10
2019-05-09T01:13:08.518Z,12.18
2019-05-09T01:14:08.515Z,12.24
2019-05-09T01:15:08.519Z,12.09
2019-05-09T01:16:08.506Z,12.04
2019-05-09T01:17:08.475Z,12.09
2019-05-09T01:18:08.467Z,12.03
2019-05-09T01:19:08.374Z,12.20
2019-05-09T01:20:08.316Z,12.18
2019-05-09T01:21:08.346Z,12.17
2019-05-09T01:22:08.262Z,12.13
2019-05-09T01:23:08.202Z,12.13
2019-05-09T01:24:08.170Z,12.07
2019-05-09T01:25:08.148Z,12.17
2019-05-09T01:26:08.169Z,12.10
2019-05-09T01:27:08.084Z,12.07
2019-05-09T01:28:08.088Z,12.10
2019-05-09T01:29:08.029Z,12.13
2019-05-09T01:30:08.010Z,12.20
2019-05-09T01:31:08.027Z,12.18
2019-05-09T01:32:07.946Z,12.22
2019-05-09T01:33:07.962Z,12.20
2019-05-09T01:34:07.884Z,12.15
2019-05-09T01:35:07.899Z,12.25
2019-05-09T01:36:07.831Z,12.21
2019-05-09T01:37:07.802Z,12.12
2019-05-09T01:38:07.769Z,12.18
2019-05-09T01:39:07.802Z,12.17
2019-05-09T01:40:07.716Z,12.17
2019-05-09T01:41:07.687Z,12.17
2019-05-09T01:42:07.655Z,12.18
2019-05-09T01:43:07.625Z,12.17
2019-05-09T01:44:07.639Z,12.17
2019-05-09T01:45:07.577Z,12.17
2019-05-09T01:46:07.539Z,12.18
2019-05-09T01:47:07.519Z,12.22
2019-05-09T01:48:07.487Z,12.17
2019-05-09T01:49:07.510Z,12.20
2019-05-09T01:50:07.427Z,12.13
2019-05-09T01:51:07.399Z,12.18
2019-05-09T01:52:07.368Z,12.18
2019-05-09T01:53:07.338Z,12.21
2019-05-09T01:54:07.357Z,12.22
2019-05-09T01:55:07.323Z,12.17
2019-05-09T01:56:07.247Z,12.13
2019-05-09T01:57:07.230Z,12.18
2019-05-09T01:58:07.233Z,12.20
2019-05-09T01:59:07.168Z,12.15
2019-05-09T02:00:07.133Z,12.18
2019-05-09T02:01:07.151Z,12.25
2019-05-09T02:02:08.769Z,12.28
2019-05-09T02:03:07.058Z,12.22
2019-05-09T02:04:07.024Z,12.22
2019-05-09T02:05:06.995Z,12.27
2019-05-09T02:06:07.008Z,12.31
2019-05-09T02:07:06.932Z,12.31
2019-05-09T02:08:06.906Z,12.27
2019-05-09T02:09:06.889Z,12.25
2019-05-09T02:10:06.910Z,12.25
2019-05-09T02:11:06.920Z,12.25
2019-05-09T02:12:06.797Z,12.28
2019-05-09T02:13:06.762Z,12.27
2019-05-09T02:14:06.732Z,12.31
2019-05-09T02:15:06.708Z,12.25
2019-05-09T02:16:06.716Z,12.27
2019-05-09T02:17:06.650Z,12.20
2019-05-09T02:18:06.616Z,12.17
2019-05-09T02:19:06.593Z,12.15
2019-05-09T02:20:06.562Z,12.07
2019-05-09T02:21:06.581Z,12.10
2019-05-09T02:22:06.510Z,12.10
2019-05-09T02:23:06.474Z,12.06
2019-05-09T02:24:06.455Z,12.09
2019-05-09T02:25:06.459Z,11.99
2019-05-09T02:26:06.384Z,11.95
2019-05-09T02:27:06.404Z,11.91
2019-05-09T02:28:06.407Z,11.88
2019-05-09T02:29:06.340Z,11.91
2019-05-09T02:30:06.350Z,11.88
2019-05-09T02:31:06.248Z,11.81
2019-05-09T02:32:06.219Z,11.75
2019-05-09T02:33:06.183Z,11.84
2019-05-09T02:34:06.219Z,11.80
2019-05-09T02:35:06.129Z,11.73
2019-05-09T02:36:09.486Z,11.73
2019-05-09T02:37:09.000Z,11.69
2019-05-09T02:38:09.160Z,11.70
2019-05-09T02:39:08.912Z,11.68
2019-05-09T02:40:09.249Z,11.66
2019-05-09T02:41:08.543Z,11.66
2019-05-09T02:42:11.884Z,11.63
2019-05-09T02:43:05.935Z,11.63
2019-05-09T02:44:09.024Z,11.62
2019-05-09T02:45:08.346Z,11.60
2019-05-09T02:46:09.426Z,11.63
2019-05-09T02:47:08.760Z,11.63
2019-05-09T02:48:05.795Z,11.68
2019-05-09T02:49:08.561Z,11.60
2019-05-09T02:50:08.575Z,11.68
2019-05-09T02:51:08.965Z,11.68
2019-05-09T02:52:08.583Z,11.65
2019-05-09T02:53:08.078Z,11.57
2019-05-09T02:54:05.572Z,11.65
2019-05-09T02:55:05.551Z,11.68
2019-05-09T02:56:05.565Z,11.63
2019-05-09T02:57:08.422Z,11.72
2019-05-09T02:58:08.120Z,11.69
2019-05-09T02:59:05.423Z,11.65
2019-05-09T03:00:08.412Z,11.72
2019-05-09T03:01:07.974Z,11.69
2019-05-09T03:02:05.334Z,11.66
2019-05-09T03:03:08.903Z,11.78
2019-05-09T03:04:08.209Z,11.69
2019-05-09T03:05:05.265Z,11.75
2019-05-09T03:06:05.273Z,11.69
2019-05-09T03:07:05.211Z,11.69
2019-05-09T03:08:05.172Z,11.66
2019-05-09T03:09:05.203Z,11.70
2019-05-09T03:10:05.100Z,11.69
2019-05-09T03:11:05.110Z,11.66
2019-05-09T03:12:21.061Z,11.65
2019-05-09T03:13:08.709Z,11.73
2019-05-09T03:14:05.036Z,11.70
2019-05-09T03:15:04.959Z,11.72
2019-05-09T03:16:04.928Z,11.70
2019-05-09T03:17:04.904Z,11.72
2019-05-09T03:18:08.557Z,11.73
2019-05-09T03:19:04.838Z,11.77
2019-05-09T03:20:04.839Z,11.77
2019-05-09T03:21:04.781Z,11.75
2019-05-09T03:22:04.759Z,11.78
2019-05-09T03:23:04.765Z,11.73
2019-05-09T03:24:04.695Z,11.72
2019-05-09T03:25:04.664Z,11.78
2019-05-09T03:26:04.687Z,11.73
2019-05-09T03:27:04.610Z,11.72
2019-05-09T03:28:04.574Z,11.72
2019-05-09T03:29:04.548Z,11.70
2019-05-09T03:30:04.577Z,11.75
2019-05-09T03:31:04.487Z,11.72
2019-05-09T03:32:04.461Z,11.78
2019-05-09T03:33:04.429Z,11.78
2019-05-09T03:34:04.452Z,11.73
2019-05-09T03:35:04.371Z,11.77
2019-05-09T03:36:04.355Z,11.69
2019-05-09T03:37:04.315Z,11.66
2019-05-09T03:38:04.328Z,11.70
2019-05-09T03:39:04.253Z,11.72
2019-05-09T03:40:04.223Z,11.70
2019-05-09T03:41:04.243Z,11.73
2019-05-09T03:42:04.161Z,11.80
2019-05-09T03:43:04.134Z,11.73
2019-05-09T03:44:04.157Z,11.77
2019-05-09T03:45:04.078Z,11.70
2019-05-09T03:46:04.057Z,11.69
2019-05-09T03:47:04.024Z,11.70
2019-05-09T03:48:03.990Z,11.77
2019-05-09T03:49:04.002Z,11.80
2019-05-09T03:50:03.934Z,11.75
2019-05-09T03:51:03.905Z,11.77
2019-05-09T03:52:03.924Z,11.83
2019-05-09T03:53:03.843Z,11.90
2019-05-09T03:54:03.810Z,11.83
2019-05-09T03:55:03.841Z,11.87
2019-05-09T03:56:03.760Z,11.84
2019-05-09T03:57:03.771Z,11.88
2019-05-09T03:58:03.711Z,11.84
2019-05-09T03:59:03.699Z,11.88
2019-05-09T04:00:03.640Z,11.77
2019-05-09T04:01:03.628Z,11.84
2019-05-09T04:02:03.648Z,11.84
2019-05-09T04:03:03.562Z,11.84
2019-05-09T04:04:03.537Z,11.86
2019-05-09T04:05:03.498Z,11.86
2019-05-09T04:06:03.468Z,11.80
2019-05-09T04:07:03.492Z,11.88
2019-05-09T04:08:03.411Z,11.84
2019-05-09T04:09:03.399Z,11.81
2019-05-09T04:10:03.358Z,11.83
2019-05-09T04:11:03.352Z,11.80
2019-05-09T04:12:03.344Z,11.75
2019-05-09T04:13:03.261Z,11.75
2019-05-09T04:14:03.262Z,11.80
2019-05-09T04:15:03.336Z,11.81
2019-05-09T04:16:03.181Z,11.88
2019-05-09T04:17:03.178Z,11.91
2019-05-09T04:18:03.117Z,11.94
2019-05-09T04:19:03.102Z,11.95
2019-05-09T04:20:03.062Z,11.94
2019-05-09T04:21:03.029Z,12.10
2019-05-09T04:22:03.043Z,12.06
2019-05-09T04:23:03.002Z,12.22
2019-05-09T04:24:02.949Z,12.10
2019-05-09T04:25:02.928Z,12.20
2019-05-09T04:26:02.890Z,12.13
2019-05-09T04:27:02.859Z,12.29
2019-05-09T04:28:02.858Z,12.29
2019-05-09T04:29:02.804Z,12.28
2019-05-09T04:30:06.105Z,12.28
2019-05-09T04:31:02.740Z,12.27
2019-05-09T04:32:02.713Z,12.35
2019-05-09T04:33:02.710Z,12.39
2019-05-09T04:34:02.654Z,12.32
2019-05-09T04:35:02.644Z,12.32
2019-05-09T04:36:02.606Z,12.42
2019-05-09T04:37:02.578Z,12.46
2019-05-09T04:38:02.564Z,12.42
2019-05-09T04:39:02.519Z,12.46
2019-05-09T04:40:03.506Z,12.46
2019-05-09T04:41:02.453Z,12.46
2019-05-09T04:42:05.497Z,12.46
2019-05-09T04:43:11.979Z,12.39
2019-05-09T04:44:04.992Z,12.46
2019-05-09T04:45:03.451Z,12.49
2019-05-09T04:46:02.329Z,12.46
2019-05-09T04:47:03.533Z,12.50
2019-05-09T04:48:02.285Z,12.54
2019-05-09T04:49:02.721Z,12.57
2019-05-09T04:50:02.199Z,12.55
2019-05-09T04:51:02.169Z,12.55
2019-05-09T04:52:02.156Z,12.57
2019-05-09T04:53:02.156Z,12.57
2019-05-09T04:54:02.087Z,12.55
2019-05-09T04:55:02.054Z,12.55
2019-05-09T04:56:02.029Z,12.58
2019-05-09T04:57:01.997Z,12.62
2019-05-09T04:58:01.995Z,12.53
2019-05-09T04:59:01.939Z,12.72
2019-05-09T05:00:01.915Z,12.72
2019-05-09T05:01:01.887Z,12.76
2019-05-09T05:02:01.857Z,12.93
2019-05-09T05:03:01.862Z,12.93
2019-05-09T05:04:01.805Z,13.04
2019-05-09T05:05:01.790Z,13.15
2019-05-09T05:06:01.742Z,13.13
2019-05-09T05:07:01.710Z,13.11
2019-05-09T05:08:01.706Z,13.13
2019-05-09T05:09:01.668Z,13.15
2019-05-09T05:10:01.630Z,13.12
2019-05-09T05:11:01.607Z,13.09
2019-05-09T05:12:01.569Z,13.11
2019-05-09T05:13:01.571Z,13.12
2019-05-09T05:14:01.532Z,13.16
2019-05-09T05:15:01.489Z,13.22
2019-05-09T05:16:01.459Z,13.27
2019-05-09T05:17:07.631Z,13.16
2019-05-09T05:18:01.431Z,13.31
2019-05-09T05:19:01.377Z,13.16
2019-05-09T05:20:01.351Z,13.13
2019-05-09T05:21:01.402Z,13.15
2019-05-09T05:22:01.293Z,13.13
2019-05-09T05:23:01.266Z,13.20
2019-05-09T05:24:01.261Z,13.13
2019-05-09T05:25:01.307Z,13.22
2019-05-09T05:26:01.183Z,13.20
2019-05-09T05:27:01.154Z,13.30
2019-05-09T05:28:01.133Z,13.44
2019-05-09T05:29:01.141Z,13.50
2019-05-09T05:30:01.068Z,13.52
2019-05-09T05:31:02.039Z,13.56
2019-05-09T05:32:01.008Z,13.62
2019-05-09T05:33:00.991Z,13.72
2019-05-09T05:34:00.992Z,13.70
2019-05-09T05:35:00.924Z,13.79
2019-05-09T05:36:00.907Z,13.71
2019-05-09T05:37:00.868Z,13.79
2019-05-09T05:38:00.847Z,13.90
2019-05-09T05:39:00.856Z,13.92
2019-05-09T05:40:00.788Z,13.99
2019-05-09T05:41:00.761Z,14.04
2019-05-09T05:42:00.732Z,14.07
2019-05-09T05:43:00.704Z,14.10
2019-05-09T05:44:00.718Z,14.07
2019-05-09T05:45:00.653Z,14.08
2019-05-09T05:46:00.676Z,13.95
2019-05-09T05:47:00.615Z,13.95
2019-05-09T05:48:00.568Z,13.95
2019-05-09T05:49:00.572Z,13.87
2019-05-09T05:50:00.517Z,13.89
2019-05-09T05:51:00.492Z,13.75
2019-05-09T05:52:00.462Z,13.83
2019-05-09T05:53:00.433Z,13.81
2019-05-09T05:54:01.457Z,13.78
2019-05-09T05:55:00.382Z,13.78
2019-05-09T05:56:00.409Z,13.74
2019-05-09T05:57:00.334Z,13.75
2019-05-09T05:58:00.298Z,13.87
2019-05-09T05:59:00.280Z,13.89
2019-05-09T06:00:00.260Z,13.71
2019-05-09T06:01:00.216Z,13.86
2019-05-09T06:02:00.187Z,13.89
2019-05-09T06:03:00.160Z,13.95
2019-05-09T06:04:00.130Z,13.96
2019-05-09T06:05:00.141Z,14.04
2019-05-09T06:06:00.073Z,14.05
2019-05-09T06:07:00.057Z,14.10
2019-05-09T06:08:00.019Z,14.18
2019-05-09T06:09:00.003Z,14.17
2019-05-09T06:09:59.990Z,14.10
2019-05-09T06:10:59.939Z,14.04
2019-05-09T06:11:59.927Z,14.03
2019-05-09T06:12:59.890Z,14.07
2019-05-09T06:14:08.138Z,14.10
2019-05-09T06:14:59.855Z,14.07
2019-05-09T06:15:59.804Z,14.14
2019-05-09T06:16:59.779Z,14.18
2019-05-09T06:17:59.753Z,14.17
2019-05-09T06:18:59.740Z,14.23
2019-05-09T06:19:59.724Z,14.33
2019-05-09T06:20:59.675Z,14.32
2019-05-09T06:21:59.645Z,14.35
2019-05-09T06:22:59.612Z,14.37
2019-05-09T06:23:59.596Z,14.30
2019-05-09T06:24:59.586Z,14.36
2019-05-09T06:25:59.536Z,14.41
2019-05-09T06:26:59.521Z,14.37
2019-05-09T06:27:59.481Z,14.32
2019-05-09T06:28:59.451Z,14.36
2019-05-09T06:29:59.464Z,14.22
2019-05-09T06:30:59.406Z,14.28
2019-05-09T06:31:59.380Z,14.25
2019-05-09T06:32:59.347Z,14.10
2019-05-09T06:33:59.358Z,14.05
2019-05-09T06:34:59.326Z,14.11
2019-05-09T06:35:59.262Z,14.08
2019-05-09T06:37:02.960Z,14.07
2019-05-09T06:37:59.238Z,14.03
2019-05-09T06:38:59.200Z,14.08
2019-05-09T06:39:59.187Z,14.14
2019-05-09T06:40:59.137Z,14.04
2019-05-09T06:41:59.102Z,14.12
2019-05-09T06:43:00.165Z,14.17
2019-05-09T06:44:13.592Z,14.33
2019-05-09T06:44:59.065Z,14.32
2019-05-09T06:45:58.999Z,14.45
2019-05-09T06:46:58.975Z,14.63
2019-05-09T06:48:00.461Z,14.70
2019-05-09T06:49:20.477Z,14.72
2019-05-09T06:49:58.911Z,14.79
2019-05-09T06:50:58.871Z,14.84
2019-05-09T06:51:58.834Z,14.99
2019-05-09T06:52:58.812Z,15.17
2019-05-09T06:53:58.788Z,15.29
2019-05-09T06:54:58.802Z,15.31
2019-05-09T06:55:58.756Z,15.43
2019-05-09T06:56:58.718Z,15.27
2019-05-09T06:57:58.674Z,15.28
2019-05-09T06:58:58.653Z,15.31
2019-05-09T06:59:58.631Z,15.42
2019-05-09T07:00:58.628Z,15.51
2019-05-09T07:01:58.583Z,15.52
2019-05-09T07:03:00.826Z,15.51
2019-05-09T07:03:58.535Z,15.64
2019-05-09T07:04:58.514Z,15.43
2019-05-09T07:05:58.490Z,15.46
2019-05-09T07:06:58.911Z,15.44
2019-05-09T07:07:58.428Z,15.35
2019-05-09T07:08:58.624Z,15.29
2019-05-09T07:09:58.782Z,15.46
2019-05-09T07:10:58.528Z,15.46
2019-05-09T07:11:58.747Z,15.44
2019-05-09T07:12:58.543Z,15.31
2019-05-09T07:13:58.263Z,15.21
2019-05-09T07:14:58.381Z,15.19
2019-05-09T07:15:58.584Z,15.24
2019-05-09T07:16:58.488Z,15.19
2019-05-09T07:17:58.155Z,15.04
2019-05-09T07:18:58.141Z,15.15
2019-05-09T07:19:58.950Z,15.22
2019-05-09T07:20:58.102Z,15.33
2019-05-09T07:21:58.117Z,15.44
2019-05-09T07:22:58.382Z,15.57
2019-05-09T07:23:58.403Z,15.73
2019-05-09T07:25:05.856Z,15.73
2019-05-09T07:25:58.275Z,15.79
2019-05-09T07:26:58.432Z,15.83
2019-05-09T07:27:58.680Z,15.84
2019-05-09T07:28:59.484Z,15.80
2019-05-09T07:29:58.235Z,15.77
2019-05-09T07:30:58.249Z,15.84
2019-05-09T07:31:57.808Z,15.79
2019-05-09T07:32:58.710Z,15.77
2019-05-09T07:33:58.710Z,15.65
2019-05-09T07:34:57.956Z,15.57
2019-05-09T07:35:58.148Z,15.55
2019-05-09T07:36:58.166Z,15.70
2019-05-09T07:37:58.003Z,15.90
2019-05-09T07:38:58.224Z,15.94
2019-05-09T07:39:57.788Z,16.10
2019-05-09T07:40:58.114Z,16.24
2019-05-09T07:41:58.347Z,16.31
2019-05-09T07:42:58.338Z,16.33
2019-05-09T07:43:58.252Z,16.35
2019-05-09T07:44:59.151Z,16.38
2019-05-09T07:45:58.047Z,16.43
2019-05-09T07:46:58.037Z,16.50
2019-05-09T07:47:58.327Z,16.57
2019-05-09T07:48:57.925Z,16.68
2019-05-09T07:49:58.494Z,16.74
2019-05-09T07:50:59.736Z,16.68
2019-05-09T07:51:58.443Z,16.79
2019-05-09T07:52:58.237Z,16.74
2019-05-09T07:53:58.885Z,16.66
2019-05-09T07:54:58.037Z,16.72
2019-05-09T07:55:58.225Z,16.69
2019-05-09T07:56:58.025Z,16.83
2019-05-09T07:57:59.063Z,16.86
2019-05-09T07:58:58.507Z,16.89
2019-05-09T07:59:58.441Z,16.83
2019-05-09T08:01:01.324Z,16.87
2019-05-09T08:01:58.109Z,16.72
2019-05-09T08:02:58.097Z,16.86
2019-05-09T08:03:58.476Z,16.83
2019-05-09T08:04:57.984Z,16.96
2019-05-09T08:05:57.965Z,17.04
2019-05-09T08:06:57.720Z,17.04
2019-05-09T08:07:58.595Z,17.16
2019-05-09T08:08:58.112Z,17.34
2019-05-09T08:09:57.896Z,17.52
2019-05-09T08:10:58.428Z,17.63
2019-05-09T08:11:58.788Z,17.68
2019-05-09T08:12:58.592Z,17.76
2019-05-09T08:13:57.499Z,17.79
2019-05-09T08:15:10.370Z,17.60
2019-05-09T08:15:58.536Z,17.56
2019-05-09T08:16:58.054Z,17.52
2019-05-09T08:17:59.214Z,17.64
2019-05-09T08:18:57.779Z,17.64
2019-05-09T08:19:58.270Z,17.79
2019-05-09T08:20:57.795Z,17.92
2019-05-09T08:21:57.513Z,17.87
2019-05-09T08:23:01.321Z,17.89
2019-05-09T08:23:57.879Z,17.92
2019-05-09T08:24:57.612Z,18.05
2019-05-09T08:25:57.919Z,18.13
2019-05-09T08:26:57.986Z,18.25
2019-05-09T08:27:58.692Z,18.05
2019-05-09T08:28:58.397Z,18.05
2019-05-09T08:29:58.372Z,18.05
2019-05-09T08:30:58.586Z,18.11
2019-05-09T08:31:58.226Z,18.01
2019-05-09T08:32:56.353Z,18.04
2019-05-09T08:33:59.037Z,18.15
2019-05-09T08:34:57.624Z,18.08
2019-05-09T08:35:58.327Z,18.03
2019-05-09T08:36:58.039Z,18.08
2019-05-09T08:37:58.240Z,18.29
2019-05-09T08:38:58.531Z,18.16
2019-05-09T08:39:57.778Z,18.26
2019-05-09T08:40:58.767Z,18.41
2019-05-09T08:41:58.986Z,18.52
2019-05-09T08:42:58.468Z,18.63
2019-05-09T08:43:57.541Z,18.71
2019-05-09T08:44:57.781Z,18.60
2019-05-09T08:45:57.625Z,18.80
2019-05-09T08:46:57.397Z,18.77
2019-05-09T08:47:57.765Z,18.99
2019-05-09T08:48:57.652Z,19.26
2019-05-09T08:49:58.410Z,19.41
2019-05-09T08:50:58.129Z,19.55
2019-05-09T08:52:10.202Z,19.49
2019-05-09T08:52:57.618Z,19.39
2019-05-09T08:53:57.812Z,19.26
2019-05-09T08:54:57.838Z,19.11
2019-05-09T08:55:57.883Z,19.34
2019-05-09T08:56:57.999Z,19.33
2019-05-09T08:57:58.415Z,19.40
2019-05-09T08:59:01.023Z,19.66
2019-05-09T08:59:55.773Z,19.77
2019-05-09T09:01:02.802Z,20.02
2019-05-09T09:02:12.332Z,20.11
2019-05-09T09:02:57.406Z,20.09
2019-05-09T09:03:57.562Z,19.94
2019-05-09T09:04:58.317Z,19.89
2019-05-09T09:05:57.125Z,19.58
2019-05-09T09:06:57.569Z,19.41
2019-05-09T09:07:57.811Z,19.44
2019-05-09T09:08:57.537Z,19.56
2019-05-09T09:09:57.711Z,19.58
2019-05-09T09:10:57.677Z,19.54
2019-05-09T09:11:58.129Z,19.63
2019-05-09T09:12:57.778Z,19.51
2019-05-09T09:13:57.597Z,19.64
2019-05-09T09:14:55.406Z,19.64
2019-05-09T09:16:12.124Z,19.37
2019-05-09T09:16:57.428Z,19.39
2019-05-09T09:17:57.679Z,19.44
2019-05-09T09:18:55.326Z,19.54
2019-05-09T09:19:55.293Z,19.69
2019-05-09T09:20:55.279Z,19.58
2019-05-09T09:21:58.050Z,19.40
2019-05-09T09:22:55.258Z,19.22
2019-05-09T09:23:55.209Z,19.08
2019-05-09T09:24:55.193Z,18.88
2019-05-09T09:25:58.181Z,18.73
2019-05-09T09:26:57.273Z,18.96
2019-05-09T09:27:57.478Z,19.15
2019-05-09T09:28:55.109Z,19.33
2019-05-09T09:29:55.085Z,19.51
2019-05-09T09:30:55.065Z,19.64
2019-05-09T09:31:55.050Z,19.62
2019-05-09T09:32:55.015Z,19.67
2019-05-09T09:33:55.019Z,19.77
2019-05-09T09:34:54.973Z,19.86
2019-05-09T09:35:54.953Z,19.84
2019-05-09T09:36:54.929Z,19.70
2019-05-09T09:37:57.734Z,19.71
2019-05-09T09:38:54.907Z,19.91
2019-05-09T09:39:54.866Z,20.06
2019-05-09T09:40:54.881Z,20.14
2019-05-09T09:41:54.825Z,20.18
2019-05-09T09:42:54.811Z,19.63
2019-05-09T09:43:54.813Z,19.31
2019-05-09T09:44:54.752Z,18.92
2019-05-09T09:46:07.191Z,18.70
2019-05-09T09:46:54.718Z,18.66
2019-05-09T09:47:54.689Z,18.63
2019-05-09T09:48:54.709Z,18.55
2019-05-09T09:49:55.102Z,18.52
2019-05-09T09:50:55.182Z,18.40
2019-05-09T09:51:54.605Z,18.38
2019-05-09T09:52:54.580Z,18.60
2019-05-09T09:53:54.583Z,18.77
2019-05-09T09:54:54.538Z,19.11
2019-05-09T09:55:54.521Z,19.37
2019-05-09T09:56:54.496Z,19.55
2019-05-09T09:57:54.470Z,19.70
2019-05-09T09:58:54.473Z,19.95
2019-05-09T09:59:54.431Z,20.03
2019-05-09T10:00:54.405Z,19.91
2019-05-09T10:01:54.387Z,19.92
2019-05-09T10:02:54.362Z,19.95
2019-05-09T10:03:54.380Z,20.13
2019-05-09T10:04:54.328Z,20.02
2019-05-09T10:05:54.298Z,19.71
2019-05-09T10:06:54.280Z,19.67
2019-05-09T10:07:54.256Z,19.59
2019-05-09T10:08:54.260Z,19.44
2019-05-09T10:09:54.216Z,19.52
2019-05-09T10:10:54.198Z,19.33
2019-05-09T10:11:56.980Z,19.19
2019-05-09T10:12:54.179Z,18.93
2019-05-09T10:13:54.162Z,19.00
2019-05-09T10:14:54.114Z,19.12
2019-05-09T10:15:54.080Z,19.30
2019-05-09T10:16:54.066Z,19.51
2019-05-09T10:17:54.047Z,19.73
2019-05-09T10:18:54.040Z,19.74
2019-05-09T10:19:54.000Z,19.63
2019-05-09T10:20:53.978Z,19.52
2019-05-09T10:21:53.953Z,19.67
2019-05-09T10:22:59.934Z,19.69
2019-05-09T10:23:53.933Z,19.56
2019-05-09T10:24:53.906Z,19.36
2019-05-09T10:25:53.872Z,18.98
2019-05-09T10:26:53.852Z,18.90
2019-05-09T10:27:53.827Z,18.80
2019-05-09T10:28:53.831Z,18.80
2019-05-09T10:29:54.669Z,18.78
2019-05-09T10:30:53.816Z,18.84
2019-05-09T10:31:53.746Z,18.66
2019-05-09T10:32:53.747Z,18.68
2019-05-09T10:33:53.702Z,18.68
2019-05-09T10:34:53.708Z,18.70
2019-05-09T10:35:53.674Z,18.52
2019-05-09T10:36:53.630Z,18.55
2019-05-09T10:37:53.617Z,18.35
2019-05-09T10:38:53.589Z,18.23
2019-05-09T10:39:53.684Z,18.28
2019-05-09T10:40:53.651Z,18.37
2019-05-09T10:41:53.514Z,18.49
2019-05-09T10:42:53.498Z,18.47
2019-05-09T10:43:53.487Z,18.31
2019-05-09T10:44:53.484Z,18.25
2019-05-09T10:45:53.425Z,18.31
2019-05-09T10:46:57.614Z,18.37
2019-05-09T10:47:53.383Z,18.40
2019-05-09T10:48:53.359Z,18.55
2019-05-09T10:49:53.406Z,18.60
2019-05-09T10:50:54.720Z,18.99
2019-05-09T10:51:53.291Z,19.33
2019-05-09T10:52:53.268Z,19.76
2019-05-09T10:53:53.248Z,19.74
2019-05-09T10:54:53.249Z,19.41
2019-05-09T10:55:53.199Z,19.62
2019-05-09T10:56:53.185Z,19.69
2019-05-09T10:57:53.335Z,19.82
2019-05-09T10:58:53.134Z,19.89
2019-05-09T10:59:53.187Z,20.10
2019-05-09T11:00:53.092Z,20.14
2019-05-09T11:01:53.086Z,20.06
2019-05-09T11:02:53.048Z,19.86
2019-05-09T11:03:53.040Z,19.79
2019-05-09T11:04:53.052Z,19.73
2019-05-09T11:05:53.035Z,19.79
2019-05-09T11:06:52.963Z,19.84
2019-05-09T11:07:52.936Z,19.91
2019-05-09T11:08:52.924Z,20.19
2019-05-09T11:09:52.972Z,20.13
2019-05-09T11:10:52.873Z,20.16
2019-05-09T11:11:52.858Z,20.26
2019-05-09T11:12:52.892Z,20.66
2019-05-09T11:13:52.815Z,20.93
2019-05-09T11:14:52.787Z,21.17
2019-05-09T11:15:52.781Z,21.39
2019-05-09T11:17:06.828Z,21.40
2019-05-09T11:17:52.767Z,21.21
2019-05-09T11:18:52.708Z,20.82
2019-05-09T11:19:52.684Z,20.80
2019-05-09T11:20:52.661Z,20.85
2019-05-09T11:21:52.686Z,20.62
2019-05-09T11:22:52.619Z,20.47
2019-05-09T11:23:52.608Z,20.43
2019-05-09T11:24:52.575Z,20.37
2019-05-09T11:25:52.600Z,20.40
2019-05-09T11:26:52.565Z,20.44
2019-05-09T11:28:06.889Z,20.25
2019-05-09T11:28:52.539Z,20.34
2019-05-09T11:29:52.474Z,20.13
2019-05-09T11:30:52.460Z,19.81
2019-05-09T11:31:52.438Z,19.58
2019-05-09T11:32:52.462Z,19.63
2019-05-09T11:33:52.449Z,19.81
2019-05-09T11:34:52.384Z,19.92
2019-05-09T11:35:52.389Z,20.06
2019-05-09T11:36:52.362Z,20.02
2019-05-09T11:37:52.307Z,19.88
2019-05-09T11:38:52.334Z,19.85
2019-05-09T11:39:52.287Z,19.95
2019-05-09T11:40:52.268Z,19.82
2019-05-09T11:41:52.217Z,19.71
2019-05-09T11:42:52.196Z,19.41
2019-05-09T11:43:52.172Z,19.22
2019-05-09T11:44:52.153Z,19.19
2019-05-09T11:45:52.197Z,19.39
2019-05-09T11:46:52.109Z,19.49
2019-05-09T11:47:52.081Z,19.51
2019-05-09T11:48:52.081Z,19.39
2019-05-09T11:49:52.041Z,19.41
2019-05-09T11:50:52.119Z,19.55
2019-05-09T11:51:51.996Z,19.44
2019-05-09T11:52:51.977Z,19.34
2019-05-09T11:53:52.009Z,19.21
2019-05-09T11:54:51.924Z,19.19
2019-05-09T11:55:51.962Z,19.19
2019-05-09T11:56:51.885Z,19.19
2019-05-09T11:57:51.860Z,19.31
2019-05-09T11:58:51.838Z,19.47
2019-05-09T11:59:51.819Z,19.54
2019-05-09T12:00:51.823Z,19.66
2019-05-09T12:01:51.832Z,19.47
2019-05-09T12:02:51.748Z,19.40
2019-05-09T12:03:52.452Z,19.26
2019-05-09T12:04:51.702Z,19.33
2019-05-09T12:05:52.288Z,19.44
2019-05-09T12:06:51.659Z,19.67
2019-05-09T12:07:51.631Z,19.76
2019-05-09T12:08:51.633Z,19.94
2019-05-09T12:09:51.598Z,19.95
2019-05-09T12:10:51.597Z,19.91
2019-05-09T12:11:51.637Z,20.03
2019-05-09T12:12:51.527Z,20.11
2019-05-09T12:13:51.506Z,20.19
2019-05-09T12:14:51.485Z,20.51
2019-05-09T12:15:51.509Z,20.60
2019-05-09T12:16:51.473Z,20.78
2019-05-09T12:17:58.202Z,20.80
2019-05-09T12:18:51.387Z,20.66
2019-05-09T12:19:51.388Z,20.50
2019-05-09T12:20:51.349Z,20.31
2019-05-09T12:21:51.354Z,20.31
2019-05-09T12:22:51.309Z,20.36
2019-05-09T12:23:51.287Z,20.18
2019-05-09T12:24:53.906Z,20.04
2019-05-09T12:25:51.238Z,19.81
2019-05-09T12:26:51.244Z,19.34
2019-05-09T12:27:51.246Z,18.89
2019-05-09T12:28:51.333Z,18.66
2019-05-09T12:29:51.171Z,18.66
2019-05-09T12:30:51.127Z,18.56
2019-05-09T12:31:51.138Z,18.63
2019-05-09T12:32:51.083Z,18.77
2019-05-09T12:33:51.070Z,18.93
2019-05-09T12:34:51.043Z,18.98
2019-05-09T12:35:51.023Z,18.86
2019-05-09T12:36:51.029Z,19.00
2019-05-09T12:37:50.984Z,19.12
2019-05-09T12:38:50.958Z,19.33
2019-05-09T12:39:50.933Z,19.26
2019-05-09T12:40:50.919Z,19.31
2019-05-09T12:41:50.922Z,19.37
2019-05-09T12:42:50.864Z,19.55
2019-05-09T12:43:50.839Z,19.69
2019-05-09T12:44:50.823Z,19.62
2019-05-09T12:45:50.803Z,19.70
2019-05-09T12:46:50.812Z,20.04
2019-05-09T12:48:05.810Z,20.21
2019-05-09T12:48:50.728Z,20.29
2019-05-09T12:49:50.711Z,20.29
2019-05-09T12:50:50.693Z,20.41
2019-05-09T12:51:50.687Z,20.40